createdAt,value
2018-09-10T00:00:40.552Z,2.00
2018-09-10T00:03:09.453Z,1.90
2018-09-10T00:05:38.385Z,1.63
2018-09-10T00:08:07.284Z,2.10
2018-09-10T00:10:36.221Z,2.03
2018-09-10T00:13:05.165Z,1.90
2018-09-10T00:15:34.086Z,1.90
2018-09-10T00:18:03.029Z,1.60
2018-09-10T00:20:31.944Z,1.70
2018-09-10T00:23:00.884Z,1.40
2018-09-10T00:25:29.825Z,1.60
2018-09-10T00:27:58.765Z,1.60
2018-09-10T00:30:27.677Z,1.40
2018-09-10T00:32:56.604Z,1.70
2018-09-10T00:35:25.511Z,1.80
2018-09-10T00:37:54.440Z,1.40
2018-09-10T00:40:23.330Z,1.70
2018-09-10T00:42:52.265Z,1.63
2018-09-10T00:45:21.149Z,1.70
2018-09-10T00:47:50.077Z,1.90
2018-09-10T00:50:19.007Z,1.90
2018-09-10T00:52:47.932Z,2.03
2018-09-10T00:55:16.822Z,1.80
2018-09-10T00:57:45.794Z,1.80
2018-09-10T01:00:14.704Z,1.90
2018-09-10T01:02:43.666Z,1.90
2018-09-10T01:05:12.560Z,1.77
2018-09-10T01:07:41.502Z,1.70
2018-09-10T01:10:10.412Z,2.17
2018-09-10T01:12:39.505Z,1.77
2018-09-10T01:15:08.421Z,1.80
2018-09-10T01:17:37.340Z,1.77
2018-09-10T01:20:06.401Z,1.80
2018-09-10T01:22:35.464Z,1.70
2018-09-10T01:25:04.356Z,1.90
2018-09-10T01:27:33.266Z,1.70
2018-09-10T01:30:02.197Z,1.70
2018-09-10T01:32:31.105Z,1.70
2018-09-10T01:35:04.449Z,1.60
2018-09-10T01:37:34.417Z,1.73
2018-09-10T01:40:03.765Z,1.57
2018-09-10T01:42:33.017Z,1.50
2018-09-10T01:45:02.456Z,1.57
2018-09-10T01:47:31.416Z,1.70
2018-09-10T01:50:00.418Z,1.63
2018-09-10T01:52:29.618Z,1.50
2018-09-10T01:54:58.524Z,1.53
2018-09-10T01:57:27.420Z,1.67
2018-09-10T01:59:56.341Z,1.63
2018-09-10T02:02:25.233Z,1.73
2018-09-10T02:04:54.197Z,1.60
2018-09-10T02:07:23.104Z,1.50
2018-09-10T02:09:52.037Z,1.70
2018-09-10T02:12:25.959Z,1.70
2018-09-10T02:14:56.117Z,1.70
2018-09-10T02:17:25.645Z,1.47
2018-09-10T02:19:54.844Z,1.90
2018-09-10T02:22:23.751Z,1.60
2018-09-10T02:24:53.021Z,1.43
2018-09-10T02:27:21.954Z,1.60
2018-09-10T02:29:50.880Z,1.70
2018-09-10T02:32:19.768Z,1.40
2018-09-10T02:34:48.727Z,2.00
2018-09-10T02:37:17.640Z,1.80
2018-09-10T02:39:46.543Z,1.77
2018-09-10T02:42:15.476Z,1.73
2018-09-10T02:44:44.381Z,1.60
2018-09-10T02:47:13.314Z,1.47
2018-09-10T02:49:42.256Z,1.70
2018-09-10T02:52:11.188Z,1.47
2018-09-10T02:54:40.113Z,1.43
2018-09-10T02:57:09.377Z,1.70
2018-09-10T02:59:38.285Z,1.60
2018-09-10T03:02:07.348Z,1.43
2018-09-10T03:04:36.373Z,1.20
2018-09-10T03:07:05.488Z,1.60
2018-09-10T03:09:34.458Z,1.77
2018-09-10T03:12:03.418Z,1.73
2018-09-10T03:14:32.309Z,1.70
2018-09-10T03:17:01.484Z,1.70
2018-09-10T03:19:30.421Z,1.53
2018-09-10T03:21:59.344Z,1.47
2018-09-10T03:24:28.416Z,1.77
2018-09-10T03:26:57.372Z,1.93
2018-09-10T03:29:26.333Z,1.80
2018-09-10T03:31:55.257Z,1.67
2018-09-10T03:34:24.275Z,1.80
2018-09-10T03:36:53.407Z,1.97
2018-09-10T03:39:22.445Z,1.90
2018-09-10T03:41:51.361Z,1.80
2018-09-10T03:44:20.324Z,1.40
2018-09-10T03:46:49.301Z,1.80
2018-09-10T03:49:18.225Z,2.03
2018-09-10T03:51:47.117Z,2.10
2018-09-10T03:54:16.141Z,1.77
2018-09-10T03:56:45.036Z,1.97
2018-09-10T03:59:14.010Z,1.77
2018-09-10T04:01:42.901Z,1.90
2018-09-10T04:04:11.797Z,1.70
2018-09-10T04:06:40.727Z,1.90
2018-09-10T04:09:10.336Z,1.80
2018-09-10T04:11:39.268Z,1.80
2018-09-10T04:14:08.169Z,2.00
2018-09-10T04:16:37.112Z,1.53
2018-09-10T04:19:06.121Z,2.00
2018-09-10T04:21:35.065Z,1.90
2018-09-10T04:24:03.965Z,1.70
2018-09-10T04:26:32.929Z,1.60
2018-09-10T04:29:01.851Z,1.80
2018-09-10T04:31:30.780Z,1.53
2018-09-10T04:33:59.676Z,1.53
2018-09-10T04:36:28.608Z,2.00
2018-09-10T04:38:57.520Z,1.50
2018-09-10T04:41:26.462Z,1.90
2018-09-10T04:43:55.373Z,1.93
2018-09-10T04:46:24.313Z,2.00
2018-09-10T04:48:53.210Z,1.70
2018-09-10T04:51:22.133Z,1.80
2018-09-10T04:53:51.045Z,1.70
2018-09-10T04:56:19.975Z,1.80
2018-09-10T04:58:48.876Z,2.27
2018-09-10T05:01:17.936Z,1.90
2018-09-10T05:03:46.845Z,1.90
2018-09-10T05:06:15.781Z,2.10
2018-09-10T05:08:44.672Z,2.27
2018-09-10T05:11:13.612Z,1.80
2018-09-10T05:13:42.544Z,2.27
2018-09-10T05:16:11.505Z,1.80
2018-09-10T05:18:40.400Z,2.13
2018-09-10T05:21:09.329Z,2.17
2018-09-10T05:23:38.237Z,2.10
2018-09-10T05:26:07.120Z,2.00
2018-09-10T05:28:36.056Z,2.10
2018-09-10T05:31:05.304Z,2.17
2018-09-10T05:33:34.249Z,2.10
2018-09-10T05:36:03.172Z,2.20
2018-09-10T05:38:32.104Z,2.33
2018-09-10T05:41:00.989Z,2.20
2018-09-10T05:43:29.957Z,2.30
2018-09-10T05:45:58.865Z,2.10
2018-09-10T05:48:27.821Z,2.70
2018-09-10T05:50:56.705Z,2.40
2018-09-10T05:53:25.624Z,2.07
2018-09-10T05:55:54.533Z,2.90
2018-09-10T05:58:23.460Z,2.50
2018-09-10T06:00:53.069Z,2.30
2018-09-10T06:03:22.049Z,2.67
2018-09-10T06:05:51.005Z,2.50
2018-09-10T06:08:19.932Z,2.57
2018-09-10T06:10:48.816Z,2.37
2018-09-10T06:13:17.737Z,2.87
2018-09-10T06:15:46.673Z,2.27
2018-09-10T06:18:15.609Z,2.90
2018-09-10T06:20:44.493Z,2.73
2018-09-10T06:23:13.412Z,3.10
2018-09-10T06:25:42.323Z,2.63
2018-09-10T06:28:11.252Z,2.97
2018-09-10T06:30:40.137Z,2.70
2018-09-10T06:33:09.061Z,2.40
2018-09-10T06:35:38.034Z,2.57
2018-09-10T06:38:07.001Z,2.90
2018-09-10T06:40:35.897Z,2.97
2018-09-10T06:43:04.821Z,2.90
2018-09-10T06:45:33.713Z,2.53
2018-09-10T06:48:02.656Z,2.90
2018-09-10T06:50:31.536Z,2.60
2018-09-10T06:53:00.500Z,3.00
2018-09-10T06:55:29.396Z,2.57
2018-09-10T06:57:58.309Z,2.80
2018-09-10T07:00:27.217Z,3.03
2018-09-10T07:02:56.142Z,2.97
2018-09-10T07:05:25.036Z,2.77
2018-09-10T07:07:54.049Z,3.10
2018-09-10T07:10:23.003Z,2.70
2018-09-10T07:12:51.905Z,2.97
2018-09-10T07:15:20.917Z,2.67
2018-09-10T07:17:50.123Z,2.67
2018-09-10T07:20:19.057Z,2.73
2018-09-10T07:22:48.013Z,2.73
2018-09-10T07:25:16.901Z,2.70
2018-09-10T07:27:45.947Z,2.50
2018-09-10T07:30:14.854Z,2.87
2018-09-10T07:32:43.781Z,3.00
2018-09-10T07:35:12.669Z,2.73
2018-09-10T07:37:41.600Z,2.37
2018-09-10T07:40:10.849Z,2.70
2018-09-10T07:42:39.769Z,2.73
2018-09-10T07:45:08.717Z,2.60
2018-09-10T07:47:37.637Z,2.73
2018-09-10T07:50:06.621Z,2.80
2018-09-10T07:52:36.149Z,2.60
2018-09-10T07:55:05.640Z,3.35
2018-09-10T07:57:34.618Z,2.53
2018-09-10T08:00:04.289Z,2.80
2018-09-10T08:02:33.224Z,2.50
2018-09-10T08:05:02.724Z,2.40
2018-09-10T08:07:31.664Z,2.27
2018-09-10T08:10:00.616Z,2.50
2018-09-10T08:12:29.529Z,2.17
2018-09-10T08:14:58.533Z,2.17
2018-09-10T08:17:27.473Z,2.73
2018-09-10T08:19:56.400Z,1.93
2018-09-10T08:22:25.297Z,2.33
2018-09-10T08:24:54.233Z,2.10
2018-09-10T08:27:23.133Z,2.50
2018-09-10T08:29:52.069Z,2.03
2018-09-10T08:32:20.973Z,2.33
2018-09-10T08:34:49.913Z,1.90
2018-09-10T08:37:18.812Z,2.13
2018-09-10T08:39:47.756Z,1.90
2018-09-10T08:42:16.655Z,1.97
2018-09-10T08:44:45.624Z,2.27
2018-09-10T08:47:14.597Z,1.83
2018-09-10T08:49:43.547Z,2.13
2018-09-10T08:52:12.433Z,1.67
2018-09-10T08:54:41.640Z,1.70
2018-09-10T08:57:10.288Z,1.83
2018-09-10T08:59:39.249Z,1.80
2018-09-10T09:02:08.364Z,1.93
2018-09-10T09:04:37.553Z,1.93
2018-09-10T09:07:06.460Z,1.63
2018-09-10T09:09:35.400Z,2.03
2018-09-10T09:12:04.304Z,1.60
2018-09-10T09:14:33.229Z,1.87
2018-09-10T09:17:02.112Z,1.90
2018-09-10T09:19:31.050Z,1.50
2018-09-10T09:21:59.941Z,1.43
2018-09-10T09:24:28.956Z,1.83
2018-09-10T09:26:57.852Z,1.27
2018-09-10T09:29:26.750Z,1.40
2018-09-10T09:31:55.688Z,1.30
2018-09-10T09:34:26.741Z,1.20
2018-09-10T09:37:00.856Z,2.10
2018-09-10T09:39:35.037Z,1.20
2018-09-10T09:42:09.271Z,1.03
2018-09-10T09:44:43.257Z,1.10
2018-09-10T09:47:12.194Z,1.27
2018-09-10T09:49:41.081Z,1.10
2018-09-10T09:52:10.029Z,1.30
2018-09-10T09:54:39.481Z,1.20
2018-09-10T09:57:08.421Z,0.90
2018-09-10T09:59:37.327Z,1.10
2018-09-10T10:02:11.359Z,1.00
2018-09-10T10:04:40.354Z,1.40
2018-09-10T10:07:09.263Z,1.30
2018-09-10T10:09:38.188Z,1.03
2018-09-10T10:12:07.178Z,0.90
2018-09-10T10:14:36.100Z,1.20
2018-09-10T10:17:05.069Z,0.97
2018-09-10T10:19:33.969Z,1.57
2018-09-10T10:22:02.985Z,1.00
2018-09-10T10:24:31.844Z,1.00
2018-09-10T10:27:00.794Z,1.10
2018-09-10T10:29:29.704Z,1.10
2018-09-10T10:31:58.624Z,1.20
2018-09-10T10:34:27.523Z,0.77
2018-09-10T10:36:56.458Z,0.90
2018-09-10T10:39:25.410Z,0.80
2018-09-10T10:41:54.351Z,0.90
2018-09-10T10:44:23.251Z,1.43
2018-09-10T10:46:52.201Z,1.30
2018-09-10T10:49:21.100Z,1.30
2018-09-10T10:51:50.125Z,1.13
2018-09-10T10:54:19.020Z,1.20
2018-09-10T10:56:47.936Z,0.80
2018-09-10T10:59:16.824Z,1.10
2018-09-10T11:01:45.764Z,1.20
2018-09-10T11:04:14.677Z,1.33
2018-09-10T11:06:43.629Z,1.33
2018-09-10T11:09:12.533Z,0.87
2018-09-10T11:11:41.489Z,1.00
2018-09-10T11:14:10.377Z,1.10
2018-09-10T11:16:39.382Z,1.00
2018-09-10T11:19:08.260Z,1.20
2018-09-10T11:21:37.197Z,1.00
2018-09-10T11:24:06.057Z,1.10
2018-09-10T11:26:34.989Z,1.07
2018-09-10T11:29:03.913Z,1.10
2018-09-10T11:31:32.853Z,1.00
2018-09-10T11:34:01.740Z,0.80
2018-09-10T11:36:30.696Z,0.73
2018-09-10T11:38:59.617Z,1.10
2018-09-10T11:41:28.571Z,1.23
2018-09-10T11:43:57.501Z,1.10
2018-09-10T11:46:26.434Z,1.47
2018-09-10T11:48:55.433Z,0.97
2018-09-10T11:51:24.326Z,0.80
2018-09-10T11:53:53.265Z,0.80
2018-09-10T11:56:22.158Z,1.00
2018-09-10T11:58:51.264Z,1.23
2018-09-10T12:01:20.241Z,1.20
2018-09-10T12:03:49.189Z,0.90
2018-09-10T12:06:19.111Z,1.00
2018-09-10T12:08:48.034Z,1.20
2018-09-10T12:11:17.097Z,0.93
2018-09-10T12:13:46.177Z,1.10
2018-09-10T12:16:15.071Z,1.23
2018-09-10T12:18:44.013Z,1.20
2018-09-10T12:21:12.916Z,1.03
2018-09-10T12:23:41.844Z,1.00
2018-09-10T12:26:10.742Z,1.30
2018-09-10T12:28:39.697Z,0.90
2018-09-10T12:31:08.598Z,0.97
2018-09-10T12:33:37.531Z,1.00
2018-09-10T12:36:06.524Z,0.90
2018-09-10T12:38:35.465Z,1.10
2018-09-10T12:41:04.376Z,1.13
2018-09-10T12:43:33.335Z,1.30
2018-09-10T12:46:02.224Z,1.20
2018-09-10T12:48:31.145Z,1.30
2018-09-10T12:51:00.032Z,1.10
2018-09-10T12:53:28.941Z,1.20
2018-09-10T12:55:57.840Z,1.10
2018-09-10T12:58:26.789Z,1.37
2018-09-10T13:00:55.675Z,1.50
2018-09-10T13:03:24.589Z,1.30
2018-09-10T13:05:53.485Z,1.60
2018-09-10T13:08:22.457Z,1.53
2018-09-10T13:10:51.389Z,1.50
2018-09-10T13:13:20.339Z,1.53
2018-09-10T13:15:49.234Z,1.57
2018-09-10T13:18:18.156Z,1.70
2018-09-10T13:20:47.079Z,1.47
2018-09-10T13:23:15.997Z,1.40
2018-09-10T13:25:44.872Z,1.70
2018-09-10T13:28:13.765Z,1.60
2018-09-10T13:30:42.709Z,1.70
2018-09-10T13:33:11.597Z,1.60
2018-09-10T13:35:40.521Z,1.60
2018-09-10T13:38:09.480Z,1.97
2018-09-10T13:40:38.417Z,1.73
2018-09-10T13:43:07.401Z,1.67
2018-09-10T13:45:36.458Z,1.80
2018-09-10T13:48:05.562Z,1.70
2018-09-10T13:50:34.517Z,1.50
2018-09-10T13:53:03.416Z,1.60
2018-09-10T13:55:32.334Z,1.47
2018-09-10T13:58:01.268Z,1.50
2018-09-10T14:00:30.220Z,1.50
2018-09-10T14:02:59.116Z,1.23
2018-09-10T14:05:28.038Z,1.60
2018-09-10T14:07:56.932Z,1.70
2018-09-10T14:10:25.852Z,1.57
2018-09-10T14:12:54.744Z,1.83
2018-09-10T14:15:23.690Z,1.67
2018-09-10T14:17:52.584Z,1.80
2018-09-10T14:20:21.524Z,1.53
2018-09-10T14:22:50.447Z,1.40
2018-09-10T14:25:19.381Z,1.63
2018-09-10T14:27:48.455Z,1.43
2018-09-10T14:30:17.380Z,1.30
2018-09-10T14:32:46.288Z,1.60
2018-09-10T14:35:15.236Z,1.43
2018-09-10T14:37:44.134Z,1.70
2018-09-10T14:40:13.073Z,1.63
2018-09-10T14:42:42.022Z,1.50
2018-09-10T14:45:10.952Z,1.50
2018-09-10T14:47:39.897Z,1.53
2018-09-10T14:50:09.661Z,1.60
2018-09-10T14:52:38.589Z,1.67
2018-09-10T14:55:07.525Z,1.50
2018-09-10T14:57:36.468Z,1.50
2018-09-10T15:00:05.955Z,1.33
2018-09-10T15:02:34.873Z,1.53
2018-09-10T15:05:04.146Z,1.40
2018-09-10T15:07:33.064Z,1.30
2018-09-10T15:10:01.955Z,1.37
2018-09-10T15:12:30.912Z,1.50
2018-09-10T15:14:59.821Z,1.47
2018-09-10T15:17:28.781Z,1.40
2018-09-10T15:19:57.676Z,1.23
2018-09-10T15:22:26.560Z,1.53
2018-09-10T15:24:55.492Z,1.80
2018-09-10T15:27:24.384Z,1.60
2018-09-10T15:29:53.553Z,1.60
2018-09-10T15:32:22.729Z,1.43
2018-09-10T15:34:51.732Z,1.63
2018-09-10T15:37:20.637Z,1.40
2018-09-10T15:39:49.573Z,1.80
2018-09-10T15:42:18.468Z,1.50
2018-09-10T15:44:47.385Z,1.57
2018-09-10T15:47:16.285Z,1.40
2018-09-10T15:49:45.217Z,1.60
2018-09-10T15:52:14.108Z,1.73
2018-09-10T15:54:43.029Z,1.43
2018-09-10T15:57:11.919Z,1.40
2018-09-10T15:59:40.839Z,1.77
2018-09-10T16:02:09.777Z,1.50
2018-09-10T16:04:38.728Z,1.63
2018-09-10T16:07:07.685Z,1.40
2018-09-10T16:09:36.597Z,1.80
2018-09-10T16:12:05.503Z,1.43
2018-09-10T16:14:34.436Z,1.60
2018-09-10T16:17:03.407Z,1.70
2018-09-10T16:19:32.305Z,1.43
2018-09-10T16:22:01.212Z,1.20
2018-09-10T16:24:30.181Z,1.60
2018-09-10T16:26:59.073Z,1.70
2018-09-10T16:29:28.050Z,1.50
2018-09-10T16:31:56.943Z,1.57
2018-09-10T16:34:25.877Z,1.70
2018-09-10T16:36:54.804Z,1.37
2018-09-10T16:39:23.727Z,1.60
2018-09-10T16:41:52.625Z,1.40
2018-09-10T16:44:21.556Z,1.40
2018-09-10T16:46:50.454Z,1.43
2018-09-10T16:49:19.399Z,1.30
2018-09-10T16:51:48.295Z,1.50
2018-09-10T16:54:17.347Z,1.57
2018-09-10T16:56:46.160Z,1.30
2018-09-10T16:59:15.109Z,1.37
2018-09-10T17:01:44.022Z,1.77
2018-09-10T17:04:12.997Z,1.40
2018-09-10T17:06:42.728Z,1.33
2018-09-10T17:09:11.709Z,1.20
2018-09-10T17:11:40.632Z,1.30
2018-09-10T17:14:09.572Z,1.30
2018-09-10T17:16:38.586Z,1.43
2018-09-10T17:19:07.528Z,1.50
2018-09-10T17:21:36.501Z,1.80
2018-09-10T17:24:05.452Z,1.30
2018-09-10T17:26:34.388Z,1.70
2018-09-10T17:29:03.275Z,1.73
2018-09-10T17:31:32.213Z,1.47
2018-09-10T17:34:01.197Z,1.50
2018-09-10T17:36:30.213Z,1.23
2018-09-10T17:38:59.112Z,1.30
2018-09-10T17:41:28.069Z,1.10
2018-09-10T17:43:57.861Z,1.47
2018-09-10T17:46:26.804Z,1.33
2018-09-10T17:48:55.702Z,1.10
2018-09-10T17:51:24.636Z,1.30
2018-09-10T17:53:53.549Z,1.33
2018-09-10T17:56:22.467Z,1.37
2018-09-10T17:58:51.690Z,1.60
2018-09-10T18:01:20.637Z,1.53
2018-09-10T18:03:49.533Z,1.50
2018-09-10T18:06:18.468Z,1.20
2018-09-10T18:08:47.361Z,1.47
2018-09-10T18:11:16.288Z,1.23
2018-09-10T18:13:47.069Z,1.33
2018-09-10T18:16:16.003Z,1.50
2018-09-10T18:18:44.900Z,1.50
2018-09-10T18:21:13.825Z,1.30
2018-09-10T18:23:42.708Z,1.50
2018-09-10T18:26:11.637Z,1.50
2018-09-10T18:28:41.373Z,1.40
2018-09-10T18:31:10.318Z,1.27
2018-09-10T18:33:39.237Z,1.30
2018-09-10T18:36:08.253Z,1.27
2018-09-10T18:38:37.170Z,1.20
2018-09-10T18:41:06.116Z,1.40
2018-09-10T18:43:35.016Z,1.37
2018-09-10T18:46:04.057Z,1.30
2018-09-10T18:48:32.959Z,1.60
2018-09-10T18:51:01.881Z,1.20
2018-09-10T18:53:30.864Z,1.80
2018-09-10T18:55:59.805Z,1.40
2018-09-10T18:58:28.755Z,1.60
2018-09-10T19:00:57.921Z,1.50
2018-09-10T19:03:27.132Z,1.70
2018-09-10T19:05:56.109Z,1.50
2018-09-10T19:08:25.068Z,1.77
2018-09-10T19:10:54.002Z,1.53
2018-09-10T19:13:22.900Z,1.67
2018-09-10T19:15:51.820Z,1.40
2018-09-10T19:18:20.796Z,1.60
2018-09-10T19:20:49.736Z,1.70
2018-09-10T19:23:18.730Z,1.80
2018-09-10T19:25:47.630Z,1.53
2018-09-10T19:28:16.565Z,1.30
2018-09-10T19:30:45.445Z,1.00
2018-09-10T19:33:14.409Z,1.60
2018-09-10T19:35:43.333Z,1.83
2018-09-10T19:38:12.308Z,1.70
2018-09-10T19:40:41.269Z,1.50
2018-09-10T19:43:10.221Z,1.70
2018-09-10T19:45:39.217Z,1.70
2018-09-10T19:48:08.188Z,1.30
2018-09-10T19:50:37.123Z,1.77
2018-09-10T19:53:06.076Z,1.77
2018-09-10T19:55:34.958Z,1.53
2018-09-10T19:58:03.924Z,1.37
2018-09-10T20:00:32.977Z,1.53
2018-09-10T20:03:02.108Z,1.53
2018-09-10T20:05:31.020Z,1.70
2018-09-10T20:07:59.962Z,1.73
2018-09-10T20:10:28.853Z,1.80
2018-09-10T20:12:57.769Z,1.40
2018-09-10T20:15:26.721Z,2.20
2018-09-10T20:17:55.680Z,1.90
2018-09-10T20:20:24.582Z,1.83
2018-09-10T20:22:53.523Z,1.57
2018-09-10T20:25:22.465Z,1.33
2018-09-10T20:27:51.409Z,1.67
2018-09-10T20:30:20.317Z,1.70
2018-09-10T20:32:49.245Z,1.70
2018-09-10T20:35:18.170Z,1.87
2018-09-10T20:37:47.104Z,1.77
2018-09-10T20:40:15.997Z,1.77
2018-09-10T20:42:44.927Z,1.70
2018-09-10T20:45:13.916Z,1.90
2018-09-10T20:47:42.973Z,2.20
2018-09-10T20:50:11.912Z,1.67
2018-09-10T20:52:40.838Z,1.77
2018-09-10T20:55:09.771Z,1.87
2018-09-10T20:57:38.729Z,1.60
2018-09-10T21:00:07.614Z,1.43
2018-09-10T21:02:36.530Z,1.90
2018-09-10T21:05:05.457Z,1.93
2018-09-10T21:07:34.447Z,1.90
2018-09-10T21:10:03.312Z,1.87
2018-09-10T21:12:32.243Z,1.83
2018-09-10T21:15:01.165Z,1.77
2018-09-10T21:17:30.136Z,1.60
2018-09-10T21:19:59.195Z,1.80
2018-09-10T21:22:28.148Z,1.63
2018-09-10T21:24:57.069Z,1.80
2018-09-10T21:27:25.953Z,1.70
2018-09-10T21:29:54.983Z,1.60
2018-09-10T21:32:23.965Z,1.60
2018-09-10T21:34:52.933Z,1.97
2018-09-10T21:37:21.820Z,1.90
2018-09-10T21:39:50.774Z,2.00
2018-09-10T21:42:19.664Z,2.10
2018-09-10T21:44:48.580Z,1.50
2018-09-10T21:47:17.481Z,1.60
2018-09-10T21:49:46.423Z,1.50
2018-09-10T21:52:15.312Z,1.60
2018-09-10T21:54:44.245Z,1.90
2018-09-10T21:57:13.148Z,1.80
2018-09-10T21:59:42.280Z,1.87
2018-09-10T22:02:11.152Z,1.83
2018-09-10T22:04:40.114Z,1.83
2018-09-10T22:07:09.065Z,2.33
2018-09-10T22:09:38.552Z,1.97
2018-09-10T22:12:07.722Z,1.50
2018-09-10T22:14:36.697Z,1.73
2018-09-10T22:17:05.613Z,1.80
2018-09-10T22:19:34.545Z,2.30
2018-09-10T22:22:03.448Z,1.83
2018-09-10T22:24:32.418Z,1.90
2018-09-10T22:27:01.300Z,2.30
2018-09-10T22:29:30.215Z,1.73
2018-09-10T22:31:59.125Z,1.57
2018-09-10T22:34:28.048Z,1.90
2018-09-10T22:36:56.953Z,1.80
2018-09-10T22:39:25.952Z,1.87
2018-09-10T22:41:54.905Z,1.73
2018-09-10T22:44:23.981Z,1.67
2018-09-10T22:46:52.868Z,2.07
2018-09-10T22:49:21.812Z,1.73
2018-09-10T22:51:50.724Z,1.70
2018-09-10T22:54:19.637Z,1.60
2018-09-10T22:56:48.537Z,1.80
2018-09-10T22:59:17.476Z,1.43
2018-09-10T23:01:46.370Z,1.70
2018-09-10T23:04:15.312Z,1.73
2018-09-10T23:06:44.223Z,1.90
2018-09-10T23:09:13.153Z,1.90
2018-09-10T23:11:42.049Z,1.70
2018-09-10T23:14:11.048Z,1.83
2018-09-10T23:16:40.115Z,1.80
2018-09-10T23:19:08.954Z,1.90
2018-09-10T23:21:37.920Z,1.80
2018-09-10T23:24:06.816Z,1.77
2018-09-10T23:26:35.800Z,1.53
2018-09-10T23:29:04.705Z,2.30
2018-09-10T23:31:33.652Z,1.60
2018-09-10T23:34:02.560Z,1.50
2018-09-10T23:36:31.498Z,1.90
2018-09-10T23:39:00.373Z,1.77
2018-09-10T23:41:29.303Z,1.73
2018-09-10T23:43:58.233Z,1.97
2018-09-10T23:46:27.135Z,1.80
2018-09-10T23:48:56.101Z,1.70
2018-09-10T23:51:25.001Z,1.73
2018-09-10T23:53:53.957Z,1.87
2018-09-10T23:56:22.844Z,1.63
2018-09-10T23:58:51.781Z,1.80
